createdAt,value
2018-07-23T00:07:52.761Z,99.99
2018-07-23T00:17:50.433Z,99.99
2018-07-23T00:27:46.714Z,99.99
2018-07-23T00:37:39.996Z,99.99
2018-07-23T00:47:37.793Z,99.99
2018-07-23T00:57:33.991Z,99.99
2018-07-23T01:07:26.420Z,99.99
2018-07-23T01:17:24.962Z,99.99
2018-07-23T01:27:19.759Z,99.99
2018-07-23T01:37:18.158Z,99.99
2018-07-23T01:47:16.525Z,99.99
2018-07-23T01:57:12.821Z,99.99
2018-07-23T02:07:07.545Z,99.99
2018-07-23T02:17:02.474Z,99.99
2018-07-23T02:27:01.359Z,99.99
2018-07-23T02:36:57.021Z,99.99
2018-07-23T02:46:53.767Z,99.99
2018-07-23T02:56:49.749Z,99.99
2018-07-23T03:06:44.490Z,99.99
2018-07-23T03:16:43.557Z,99.99
2018-07-23T03:26:40.911Z,99.99
2018-07-23T03:36:39.059Z,99.99
2018-07-23T03:46:37.978Z,99.99
2018-07-23T03:56:32.154Z,99.99
2018-07-23T04:06:27.696Z,99.99
2018-07-23T04:16:26.611Z,99.99
2018-07-23T04:26:23.080Z,99.99
2018-07-23T04:36:18.651Z,99.99
2018-07-23T04:46:16.920Z,99.99
2018-07-23T04:56:15.246Z,99.99
2018-07-23T05:06:12.774Z,99.99
2018-07-23T05:16:06.490Z,99.99
2018-07-23T05:26:00.142Z,99.99
2018-07-23T05:35:56.138Z,99.99
2018-07-23T05:45:51.624Z,99.99
2018-07-23T05:55:48.292Z,99.99
2018-07-23T06:05:44.654Z,99.99
2018-07-23T06:15:35.449Z,99.99
2018-07-23T06:25:29.601Z,99.99
2018-07-23T06:35:25.914Z,99.99
2018-07-23T06:45:22.509Z,99.99
2018-07-23T06:55:11.115Z,99.99
2018-07-23T07:05:08.982Z,99.99
2018-07-23T07:14:58.803Z,99.99
2018-07-23T07:24:46.648Z,99.99
2018-07-23T07:34:44.901Z,99.99
2018-07-23T07:44:43.352Z,99.99
2018-07-23T07:54:40.645Z,99.99
2018-07-23T08:04:37.068Z,99.99
2018-07-23T08:14:34.282Z,99.99
2018-07-23T08:24:29.901Z,99.99
2018-07-23T08:34:29.112Z,99.99
2018-07-23T08:44:17.123Z,96.41
2018-07-23T08:54:08.943Z,94.72
2018-07-23T09:04:06.152Z,95.42
2018-07-23T09:13:47.305Z,94.96
2018-07-23T09:23:26.879Z,94.17
2018-07-23T09:33:23.151Z,99.30
2018-07-23T09:43:20.204Z,99.99
2018-07-23T09:53:04.329Z,99.99
2018-07-23T10:03:01.379Z,99.99
2018-07-23T10:12:56.494Z,99.99
2018-07-23T10:22:52.355Z,99.99
2018-07-23T10:32:49.882Z,99.99
2018-07-23T10:42:47.182Z,99.99
2018-07-23T10:52:41.084Z,99.99
2018-07-23T11:02:33.799Z,99.99
2018-07-23T11:12:31.874Z,99.99
2018-07-23T11:22:11.984Z,92.68
2018-07-23T11:31:55.057Z,96.71
2018-07-23T11:41:34.441Z,99.10
2018-07-23T11:51:21.991Z,96.31
2018-07-23T12:01:18.923Z,99.99
2018-07-23T12:11:17.374Z,99.99
2018-07-23T12:21:13.544Z,99.99
2018-07-23T12:31:08.874Z,97.16
2018-07-23T12:41:07.290Z,99.99
2018-07-23T12:51:03.361Z,99.99
2018-07-23T13:01:00.330Z,99.99
2018-07-23T13:10:58.835Z,99.99
2018-07-23T13:20:48.872Z,99.99
2018-07-23T13:30:46.382Z,99.99
2018-07-23T13:40:45.278Z,99.70
2018-07-23T13:50:41.120Z,99.90
2018-07-23T14:00:38.093Z,95.25
2018-07-23T14:10:39.182Z,90.59
2018-07-23T14:20:38.257Z,90.10
2018-07-23T14:30:35.683Z,93.87
2018-07-23T14:40:35.711Z,90.81
2018-07-23T14:50:34.723Z,88.31
2018-07-23T15:00:32.612Z,79.24
2018-07-23T15:10:31.028Z,81.67
2018-07-23T15:20:27.787Z,76.96
2018-07-23T15:30:23.026Z,79.49
2018-07-23T15:40:19.121Z,82.59
2018-07-23T15:50:09.805Z,83.72
2018-07-23T16:00:06.749Z,84.65
2018-07-23T16:10:04.581Z,88.75
2018-07-23T16:20:00.135Z,89.63
2018-07-23T16:29:54.840Z,91.02
2018-07-23T16:39:53.268Z,91.51
2018-07-23T16:49:50.530Z,83.69
2018-07-23T16:59:48.074Z,85.51
2018-07-23T17:09:40.482Z,90.39
2018-07-23T17:19:36.675Z,95.75
2018-07-23T17:29:32.818Z,96.39
2018-07-23T17:39:26.576Z,99.71
2018-07-23T17:49:21.291Z,99.99
2018-07-23T17:59:18.258Z,99.99
2018-07-23T18:09:15.570Z,99.99
2018-07-23T18:19:13.535Z,99.99
2018-07-23T18:29:06.443Z,99.99
2018-07-23T18:39:02.151Z,99.99
2018-07-23T18:48:58.698Z,99.99
2018-07-23T18:58:56.913Z,99.99
2018-07-23T19:08:52.996Z,99.99
2018-07-23T19:18:50.109Z,99.99
2018-07-23T19:28:45.236Z,99.99
2018-07-23T19:38:42.712Z,99.99
2018-07-23T19:48:39.963Z,99.99
2018-07-23T19:58:31.884Z,99.99
2018-07-23T20:08:26.817Z,99.99
2018-07-23T20:18:24.604Z,99.99
2018-07-23T20:28:19.492Z,99.99
2018-07-23T20:38:10.716Z,99.99
2018-07-23T20:48:03.936Z,99.99
2018-07-23T20:58:00.739Z,99.99
2018-07-23T21:07:59.404Z,99.99
2018-07-23T21:17:51.400Z,99.99
2018-07-23T21:27:49.377Z,99.99
2018-07-23T21:37:47.348Z,99.99
2018-07-23T21:47:40.902Z,99.99
2018-07-23T21:57:34.264Z,99.99
2018-07-23T22:07:30.553Z,99.99
2018-07-23T22:17:26.469Z,99.99
2018-07-23T22:27:22.952Z,99.99
2018-07-23T22:37:19.066Z,99.99
2018-07-23T22:47:13.923Z,99.99
2018-07-23T22:57:08.063Z,99.99
2018-07-23T23:07:05.841Z,99.99
2018-07-23T23:16:59.109Z,99.99
2018-07-23T23:26:52.313Z,99.99
2018-07-23T23:36:41.823Z,96.80
2018-07-23T23:46:40.105Z,98.19
2018-07-23T23:56:37.200Z,99.74
